createdAt,value
2022-08-09T00:04:15.400Z,22.80
2022-08-09T00:09:15.058Z,22.80
2022-08-09T00:14:36.431Z,22.60
2022-08-09T00:19:29.538Z,22.60
2022-08-09T00:24:36.826Z,22.50
2022-08-09T00:30:24.864Z,22.50
2022-08-09T00:34:51.975Z,22.90
2022-08-09T00:40:13.518Z,23.00
2022-08-09T00:45:15.691Z,23.10
2022-08-09T00:50:14.836Z,23.20
2022-08-09T00:56:03.940Z,23.00
2022-08-09T01:00:27.496Z,23.10
2022-08-09T01:05:51.125Z,23.20
2022-08-09T01:10:42.114Z,23.30
2022-08-09T01:15:52.193Z,23.50
2022-08-09T01:20:56.588Z,23.50
2022-08-09T01:26:03.814Z,23.30
2022-08-09T01:31:11.009Z,23.30
2022-08-09T01:36:18.291Z,23.20
2022-08-09T01:41:26.015Z,23.30
2022-08-09T01:46:32.747Z,23.10
2022-08-09T01:51:42.822Z,23.10
2022-08-09T01:56:51.421Z,23.00
2022-08-09T02:01:59.327Z,23.00
2022-08-09T02:07:02.651Z,23.00
2022-08-09T02:12:08.679Z,23.00
2022-08-09T02:17:55.021Z,23.10
2022-08-09T02:22:27.473Z,23.10
2022-08-09T02:27:57.343Z,23.00
2022-08-09T02:32:37.527Z,23.00
2022-08-09T02:37:45.571Z,23.20
2022-08-09T02:42:52.728Z,23.30
2022-08-09T02:47:59.926Z,23.30
2022-08-09T02:53:07.182Z,23.30
2022-08-09T02:58:32.830Z,23.30
2022-08-09T03:03:37.058Z,23.30
2022-08-09T03:08:28.902Z,23.20
2022-08-09T03:13:43.377Z,23.00
2022-08-09T03:18:43.409Z,23.10
2022-08-09T03:24:01.589Z,23.10
2022-08-09T03:28:58.379Z,23.10
2022-08-09T03:34:05.571Z,23.20
2022-08-09T03:39:12.809Z,23.10
2022-08-09T03:44:20.035Z,22.80
2022-08-09T03:49:27.211Z,22.70
2022-08-09T03:54:34.843Z,22.70
2022-08-09T03:59:53.884Z,22.60
2022-08-09T04:04:48.870Z,22.50
2022-08-09T04:09:56.061Z,22.50
2022-08-09T04:15:11.377Z,22.40
2022-08-09T04:20:10.452Z,22.40
2022-08-09T04:25:17.696Z,22.40
2022-08-09T04:30:26.136Z,22.40
2022-08-09T04:35:32.851Z,22.30
2022-08-09T04:40:39.368Z,22.20
2022-08-09T04:45:53.903Z,22.10
2022-08-09T04:50:53.825Z,22.20
2022-08-09T04:56:01.024Z,22.10
2022-08-09T05:01:16.407Z,22.10
2022-08-09T05:06:27.261Z,22.10
2022-08-09T05:11:22.662Z,22.10
2022-08-09T05:16:31.610Z,22.10
2022-08-09T05:21:47.159Z,22.30
2022-08-09T05:26:46.182Z,22.40
2022-08-09T05:31:58.481Z,22.40
2022-08-09T05:36:58.933Z,22.40
2022-08-09T05:42:06.159Z,22.50
2022-08-09T05:47:13.393Z,22.60
2022-08-09T05:52:20.684Z,22.60
2022-08-09T05:57:50.705Z,22.70
2022-08-09T06:02:35.636Z,22.80
2022-08-09T06:07:42.389Z,22.80
2022-08-09T06:12:50.469Z,23.00
2022-08-09T06:17:56.831Z,22.90
2022-08-09T06:23:04.078Z,22.90
2022-08-09T06:28:11.327Z,23.00
2022-08-09T06:33:39.553Z,23.00
2022-08-09T06:38:32.263Z,23.00
2022-08-09T06:43:34.397Z,23.00
2022-08-09T06:48:42.616Z,23.00
2022-08-09T06:53:49.878Z,23.00
2022-08-09T07:00:49.821Z,23.00
2022-08-09T07:04:03.871Z,23.00
2022-08-09T07:09:53.770Z,23.00
2022-08-09T07:14:17.143Z,23.00
2022-08-09T07:19:24.467Z,23.00
2022-08-09T07:24:40.215Z,23.00
2022-08-09T07:29:42.942Z,22.90
2022-08-09T07:34:46.106Z,23.00
2022-08-09T07:39:53.294Z,23.10
2022-08-09T07:45:02.590Z,23.10
2022-08-09T07:50:09.467Z,23.10
2022-08-09T07:55:14.807Z,23.10
2022-08-09T08:00:35.796Z,23.20
2022-08-09T08:05:29.154Z,23.30
2022-08-09T08:10:36.345Z,23.30
2022-08-09T08:15:43.645Z,23.30
2022-08-09T08:20:50.820Z,23.50
2022-08-09T08:26:06.388Z,23.40
2022-08-09T08:31:13.915Z,23.50
2022-08-09T08:36:12.471Z,23.60
2022-08-09T08:41:19.661Z,23.60
2022-08-09T08:46:32.884Z,23.70
2022-08-09T08:51:38.782Z,23.80
2022-08-09T08:56:41.350Z,23.80
2022-08-09T09:01:52.648Z,23.90
2022-08-09T09:06:55.976Z,23.90
2022-08-09T09:12:03.205Z,24.00
2022-08-09T09:17:11.287Z,24.00
2022-08-09T09:22:28.595Z,24.10
2022-08-09T09:28:06.959Z,24.10
2022-08-09T09:32:38.492Z,24.20
2022-08-09T09:37:41.395Z,24.20
2022-08-09T09:42:48.945Z,24.30
2022-08-09T09:47:58.687Z,24.30
2022-08-09T09:53:03.667Z,24.40
2022-08-09T09:58:18.251Z,24.40
2022-08-09T10:03:18.013Z,24.40
2022-08-09T10:08:27.604Z,24.50
2022-08-09T10:13:43.039Z,24.50
2022-08-09T10:18:39.671Z,24.60
2022-08-09T10:23:46.886Z,24.70
2022-08-09T10:29:37.513Z,24.70
2022-08-09T10:34:09.063Z,24.70
2022-08-09T10:39:15.960Z,24.80
2022-08-09T10:44:15.737Z,24.80
2022-08-09T10:49:22.926Z,24.90
2022-08-09T10:54:30.104Z,24.90
2022-08-09T10:59:55.556Z,25.00
2022-08-09T11:04:56.154Z,25.00
2022-08-09T11:09:52.417Z,25.00
2022-08-09T11:14:58.951Z,25.10
2022-08-09T11:20:12.027Z,25.10
2022-08-09T11:25:14.583Z,25.20
2022-08-09T11:30:32.464Z,25.30
2022-08-09T11:35:35.260Z,25.30
2022-08-09T11:40:34.965Z,25.40
2022-08-09T11:45:43.474Z,25.40
2022-08-09T11:50:54.886Z,25.30
2022-08-09T11:56:02.990Z,25.50
2022-08-09T12:01:08.682Z,25.50
2022-08-09T12:06:11.018Z,25.60
2022-08-09T12:11:18.223Z,25.60
2022-08-09T12:16:37.709Z,25.60
2022-08-09T12:21:38.646Z,25.70
2022-08-09T12:26:39.819Z,25.80
2022-08-09T12:32:02.024Z,25.80
2022-08-09T12:36:58.927Z,25.80
2022-08-09T12:42:01.476Z,25.70
2022-08-09T12:47:08.697Z,25.90
2022-08-09T12:52:15.926Z,25.90
2022-08-09T12:57:23.187Z,26.00
2022-08-09T13:02:30.586Z,26.00
2022-08-09T13:07:51.079Z,26.00
2022-08-09T13:13:10.039Z,26.00
2022-08-09T13:18:05.501Z,26.10
2022-08-09T13:23:02.034Z,26.20
2022-08-09T13:28:06.754Z,26.20
2022-08-09T13:33:17.156Z,26.20
2022-08-09T13:38:55.779Z,26.20
2022-08-09T13:43:35.801Z,26.30
2022-08-09T13:48:35.835Z,26.30
2022-08-09T13:53:44.641Z,26.30
2022-08-09T13:58:50.275Z,26.40
2022-08-09T14:04:01.783Z,26.40
2022-08-09T14:09:04.700Z,26.30
2022-08-09T14:14:24.720Z,26.40
2022-08-09T14:19:20.563Z,26.40
2022-08-09T14:24:32.546Z,26.30
2022-08-09T14:30:36.453Z,26.40
2022-08-09T14:34:41.422Z,26.30
2022-08-09T14:39:48.799Z,26.50
2022-08-09T14:44:59.929Z,26.50
2022-08-09T14:50:02.711Z,26.40
2022-08-09T14:55:09.780Z,26.50
2022-08-09T15:00:16.989Z,26.60
2022-08-09T15:05:24.223Z,26.60
2022-08-09T15:10:31.954Z,26.60
2022-08-09T15:15:38.911Z,26.70
2022-08-09T15:22:00.667Z,26.60
2022-08-09T15:25:53.090Z,26.70
2022-08-09T15:31:09.931Z,26.70
2022-08-09T15:36:07.558Z,26.80
2022-08-09T15:41:22.288Z,26.80
2022-08-09T15:46:32.993Z,26.80
2022-08-09T15:51:30.170Z,26.80
2022-08-09T15:56:36.523Z,26.90
2022-08-09T16:01:43.746Z,26.90
2022-08-09T16:06:51.044Z,26.90
2022-08-09T16:11:58.739Z,27.00
2022-08-09T16:17:05.640Z,27.00
2022-08-09T16:22:15.659Z,27.00
2022-08-09T16:27:20.104Z,27.10
2022-08-09T16:32:34.271Z,26.90
2022-08-09T16:37:53.141Z,27.20
2022-08-09T16:42:45.393Z,27.10
2022-08-09T16:48:41.092Z,27.10
2022-08-09T16:52:56.870Z,27.20
2022-08-09T16:58:10.286Z,27.20
2022-08-09T17:03:21.142Z,27.20
2022-08-09T17:08:45.940Z,27.10
2022-08-09T17:13:25.718Z,27.20
2022-08-09T17:18:32.934Z,27.20
2022-08-09T17:24:28.329Z,27.20
2022-08-09T17:28:47.618Z,27.30
2022-08-09T17:33:54.850Z,27.30
2022-08-09T17:39:02.109Z,27.30
2022-08-09T17:44:42.044Z,27.30
2022-08-09T17:49:18.703Z,27.30
2022-08-09T17:54:25.188Z,27.40
2022-08-09T17:59:38.054Z,27.20
2022-08-09T18:04:39.873Z,27.30
2022-08-09T18:09:46.702Z,27.30
2022-08-09T18:14:56.579Z,27.30
2022-08-09T18:20:54.498Z,27.30
2022-08-09T18:25:08.408Z,27.30
2022-08-09T18:30:34.962Z,27.20
2022-08-09T18:36:00.111Z,27.20
2022-08-09T18:40:30.737Z,27.20
2022-08-09T18:46:47.374Z,27.20
2022-08-09T18:50:45.836Z,27.20
2022-08-09T18:55:57.072Z,27.10
2022-08-09T19:01:00.803Z,27.10
2022-08-09T19:06:14.655Z,27.00
2022-08-09T19:11:15.043Z,27.00
2022-08-09T19:16:22.356Z,26.90
2022-08-09T19:21:52.253Z,26.90
2022-08-09T19:26:36.843Z,26.90
2022-08-09T19:31:46.016Z,26.90
2022-08-09T19:36:51.260Z,26.90
2022-08-09T19:41:58.558Z,26.70
2022-08-09T19:47:05.874Z,26.70
2022-08-09T19:52:14.139Z,26.50
2022-08-09T19:57:25.486Z,26.60
2022-08-09T20:04:07.249Z,26.50
2022-08-09T20:07:59.445Z,26.40
2022-08-09T20:12:45.712Z,26.40
2022-08-09T20:17:54.531Z,26.30
2022-08-09T20:22:57.682Z,26.20
2022-08-09T20:28:04.909Z,26.10
2022-08-09T20:33:12.155Z,26.00
2022-08-09T20:38:33.961Z,26.00
2022-08-09T20:43:26.620Z,26.00
2022-08-09T20:48:33.803Z,26.30
2022-08-09T20:53:40.970Z,26.30
2022-08-09T20:58:48.173Z,26.20
2022-08-09T21:05:49.678Z,25.90
2022-08-09T21:09:02.574Z,25.60
2022-08-09T21:14:09.848Z,25.30
2022-08-09T21:20:17.248Z,25.20
2022-08-09T21:24:28.766Z,25.10
2022-08-09T21:29:48.545Z,25.00
2022-08-09T21:34:38.764Z,24.80
2022-08-09T21:39:49.796Z,24.80
2022-08-09T21:44:53.159Z,24.60
2022-08-09T21:50:00.294Z,24.50
2022-08-09T21:55:07.747Z,24.50
2022-08-09T22:00:14.948Z,24.50
2022-08-09T22:05:23.247Z,24.60
2022-08-09T22:10:29.480Z,24.70
2022-08-09T22:15:37.119Z,24.90
2022-08-09T22:20:43.979Z,25.00
2022-08-09T22:26:05.801Z,25.00
2022-08-09T22:30:58.557Z,25.00
2022-08-09T22:36:05.796Z,25.10
2022-08-09T22:41:13.149Z,25.10
2022-08-09T22:48:11.470Z,25.10
2022-08-09T22:51:27.450Z,25.10
2022-08-09T22:56:34.799Z,25.20
2022-08-09T23:01:41.974Z,25.00
2022-08-09T23:06:49.170Z,25.00
2022-08-09T23:11:56.425Z,24.90
2022-08-09T23:17:03.744Z,25.00
2022-08-09T23:22:10.959Z,24.80
2022-08-09T23:27:18.148Z,24.90
2022-08-09T23:32:25.367Z,24.90
2022-08-09T23:37:32.712Z,24.80
2022-08-09T23:42:40.698Z,24.80
2022-08-09T23:47:47.026Z,24.80
2022-08-09T23:52:54.277Z,24.60
2022-08-09T23:58:10.520Z,24.30
